Time;durP1;ratioP1;P1;durP2;ratioP2;P2;SDS_P1;SDS_P2;PMS_P1;PMS_P2;Temp;Humidity;BMP_temperature;BMP_pressure;BME280_temperature;BME280_humidity;BME280_pressure;Samples;Min_cycle;Max_cycle;Signal;HPM_P1;HPM_P2
2021/09/04 00:00:07;;;;;;;18.80;4.10;;;;;;;;;;4996999;28;20033;-79
2021/09/04 00:02:33;;;;;;;22.20;5.70;;;;;;;;;;4996963;28;20112;-79
2021/09/04 00:04:59;;;;;;;17.95;4.85;;;;;;;;;;4994226;28;20033;-79
2021/09/04 00:07:28;;;;;;;22.23;6.55;;;;;;;;;;4999264;28;20033;-80
2021/09/04 00:09:54;;;;;;;17.05;4.75;;;;;;;;;;4991703;28;20052;-79
2021/09/04 00:12:20;;;;;;;21.48;6.35;;;;;;;;;;4996752;28;20072;-81
2021/09/04 00:14:46;;;;;;;20.08;6.28;;;;;;;;;;4992165;28;20034;-79
2021/09/04 00:17:12;;;;;;;18.55;4.93;;;;;;;;;;4994969;28;20034;-79
2021/09/04 00:19:39;;;;;;;22.52;5.95;;;;;;;;;;4996429;28;20029;-79
2021/09/04 00:22:05;;;;;;;25.17;6.95;;;;;;;;;;4991454;28;20030;-81
2021/09/04 00:24:31;;;;;;;24.67;6.13;;;;;;;;;;4999510;28;20112;-81
2021/09/04 00:26:57;;;;;;;21.92;5.95;;;;;;;;;;4992023;28;20280;-79
2021/09/04 00:29:23;;;;;;;18.13;4.70;;;;;;;;;;4996743;28;20056;-79
2021/09/04 00:31:50;;;;;;;17.83;4.35;;;;;;;;;;4994453;28;20025;-79
2021/09/04 00:34:16;;;;;;;20.33;4.68;;;;;;;;;;5012705;28;21246;-79
2021/09/04 00:36:42;;;;;;;19.02;4.38;;;;;;;;;;4993915;28;20476;-80
2021/09/04 00:39:09;;;;;;;21.85;5.38;;;;;;;;;;4997662;28;20033;-79
2021/09/04 00:41:35;;;;;;;19.75;5.38;;;;;;;;;;4996810;28;20049;-79
2021/09/04 00:44:05;;;;;;;20.08;5.32;;;;;;;;;;4987940;28;22008;-79
2021/09/04 00:46:31;;;;;;;22.60;4.68;;;;;;;;;;5006842;28;20022;-79
2021/09/04 00:48:58;;;;;;;21.02;5.22;;;;;;;;;;4993721;28;20041;-79
2021/09/04 00:51:24;;;;;;;18.48;4.70;;;;;;;;;;4998584;28;20026;-79
2021/09/04 00:53:51;;;;;;;21.60;4.60;;;;;;;;;;4992225;28;20033;-79
2021/09/04 00:56:18;;;;;;;17.45;4.40;;;;;;;;;;5009848;28;20056;-80
2021/09/04 00:58:44;;;;;;;20.35;4.43;;;;;;;;;;4991506;28;20048;-79
2021/09/04 01:01:10;;;;;;;16.92;4.82;;;;;;;;;;4994320;28;20037;-79
2021/09/04 01:03:36;;;;;;;20.75;4.50;;;;;;;;;;5011759;28;20797;-80
2021/09/04 01:06:02;;;;;;;19.33;4.97;;;;;;;;;;4993824;28;20026;-80
2021/09/04 01:08:29;;;;;;;20.48;4.40;;;;;;;;;;4995115;28;20588;-79
2021/09/04 01:10:56;;;;;;;17.45;4.82;;;;;;;;;;4996016;28;21283;-79
2021/09/04 01:13:22;;;;;;;20.58;4.47;;;;;;;;;;5014929;28;20030;-79
2021/09/04 01:15:49;;;;;;;19.05;4.43;;;;;;;;;;4992516;28;20080;-78
2021/09/04 01:18:15;;;;;;;18.95;4.00;;;;;;;;;;4997034;28;21394;-78
2021/09/04 01:20:41;;;;;;;20.23;4.78;;;;;;;;;;4995039;28;20037;-78
2021/09/04 01:23:08;;;;;;;18.05;4.68;;;;;;;;;;4996179;28;20895;-79
2021/09/04 01:25:34;;;;;;;14.60;3.83;;;;;;;;;;4994268;28;20459;-79
2021/09/04 01:28:02;;;;;;;20.70;4.57;;;;;;;;;;4990821;28;20033;-78
2021/09/04 01:30:29;;;;;;;20.23;5.45;;;;;;;;;;4995070;28;20029;-79
2021/09/04 01:32:55;;;;;;;14.70;3.45;;;;;;;;;;4990997;28;21554;-78
2021/09/04 01:35:23;;;;;;;17.90;4.03;;;;;;;;;;4998998;28;20056;-79
2021/09/04 01:37:49;;;;;;;19.63;6.07;;;;;;;;;;4993552;28;20029;-79
2021/09/04 01:40:16;;;;;;;18.73;4.55;;;;;;;;;;4998946;28;20065;-79
2021/09/04 01:42:43;;;;;;;17.70;4.78;;;;;;;;;;4996241;28;20037;-80
2021/09/04 01:45:09;;;;;;;16.20;3.92;;;;;;;;;;5003864;28;20029;-78
2021/09/04 01:47:35;;;;;;;16.77;4.28;;;;;;;;;;4997968;28;20135;-80
2021/09/04 01:50:02;;;;;;;16.77;4.35;;;;;;;;;;4991894;28;22480;-77
2021/09/04 01:52:28;;;;;;;13.38;3.55;;;;;;;;;;4996538;28;20048;-78
2021/09/04 01:54:55;;;;;;;20.00;4.25;;;;;;;;;;4997102;28;20025;-78
2021/09/04 01:57:21;;;;;;;15.15;3.88;;;;;;;;;;5015073;28;20025;-78
2021/09/04 01:59:47;;;;;;;17.67;4.55;;;;;;;;;;4998982;28;20029;-78
2021/09/04 02:02:14;;;;;;;15.45;4.43;;;;;;;;;;5001792;28;20031;-78
2021/09/04 02:04:40;;;;;;;17.58;5.05;;;;;;;;;;4997027;28;20068;-78
2021/09/04 02:07:06;;;;;;;19.67;4.95;;;;;;;;;;4996753;28;20029;-79
2021/09/04 02:09:33;;;;;;;20.77;4.35;;;;;;;;;;4998039;28;20469;-78
2021/09/04 02:12:00;;;;;;;16.27;4.20;;;;;;;;;;4994131;28;20048;-79
2021/09/04 02:14:27;;;;;;;12.70;2.80;;;;;;;;;;4995774;28;20440;-79
2021/09/04 02:16:53;;;;;;;19.65;4.80;;;;;;;;;;4989774;28;20030;-79
2021/09/04 02:19:19;;;;;;;19.23;3.70;;;;;;;;;;4999622;28;20083;-78
2021/09/04 02:21:45;;;;;;;15.45;3.67;;;;;;;;;;4991990;28;20113;-79
2021/09/04 02:24:12;;;;;;;15.43;3.40;;;;;;;;;;4996613;28;20377;-79
2021/09/04 02:26:38;;;;;;;15.50;3.90;;;;;;;;;;5008799;28;20652;-79
2021/09/04 02:29:04;;;;;;;24.35;3.90;;;;;;;;;;4995573;28;20033;-78
2021/09/04 02:31:30;;;;;;;16.58;3.92;;;;;;;;;;4994535;28;20781;-79
2021/09/04 02:33:56;;;;;;;19.65;4.18;;;;;;;;;;4994636;28;20053;-77
2021/09/04 02:36:23;;;;;;;16.75;4.25;;;;;;;;;;4997824;28;20017;-78
2021/09/04 02:38:49;;;;;;;15.32;3.80;;;;;;;;;;4990664;28;20021;-78
2021/09/04 02:41:16;;;;;;;16.38;3.95;;;;;;;;;;4998924;28;20033;-78
2021/09/04 02:43:43;;;;;;;15.05;4.25;;;;;;;;;;4993143;28;20041;-77
2021/09/04 02:46:09;;;;;;;16.55;3.92;;;;;;;;;;4996994;28;20030;-78
2021/09/04 02:48:36;;;;;;;17.33;3.95;;;;;;;;;;4993881;28;20474;-78
2021/09/04 02:51:02;;;;;;;18.10;4.38;;;;;;;;;;4992005;28;20025;-78
2021/09/04 02:53:29;;;;;;;15.35;3.50;;;;;;;;;;4999984;28;20112;-78
2021/09/04 02:55:55;;;;;;;13.70;3.75;;;;;;;;;;4992478;28;20037;-78
2021/09/04 02:58:21;;;;;;;15.20;3.88;;;;;;;;;;4997320;28;20026;-78
2021/09/04 03:00:47;;;;;;;18.75;4.00;;;;;;;;;;4989139;28;20492;-78
2021/09/04 03:03:14;;;;;;;14.75;3.92;;;;;;;;;;4995218;28;20706;-78
2021/09/04 03:05:40;;;;;;;16.88;4.18;;;;;;;;;;4993513;28;20029;-78
2021/09/04 03:08:06;;;;;;;17.27;4.57;;;;;;;;;;5008610;28;20036;-77
2021/09/04 03:10:32;;;;;;;17.70;4.28;;;;;;;;;;4994983;28;20033;-77
2021/09/04 03:12:58;;;;;;;14.95;4.30;;;;;;;;;;4990574;28;21085;-80
2021/09/04 03:15:24;;;;;;;15.70;3.75;;;;;;;;;;4996158;28;20116;-79
2021/09/04 03:17:51;;;;;;;17.98;3.90;;;;;;;;;;4988467;28;20061;-78
2021/09/04 03:20:17;;;;;;;16.85;3.70;;;;;;;;;;4997641;28;20132;-78
2021/09/04 03:22:43;;;;;;;17.17;4.03;;;;;;;;;;4994635;28;20021;-78
2021/09/04 03:25:09;;;;;;;16.15;4.45;;;;;;;;;;4996106;28;20025;-78
2021/09/04 03:27:35;;;;;;;15.80;4.13;;;;;;;;;;4996117;28;20124;-78
2021/09/04 03:30:01;;;;;;;17.67;4.18;;;;;;;;;;4993869;28;20096;-80
2021/09/04 03:32:28;;;;;;;19.42;4.53;;;;;;;;;;5000109;28;20112;-78
2021/09/04 03:34:55;;;;;;;16.67;4.57;;;;;;;;;;4991347;28;20025;-78
2021/09/04 03:37:21;;;;;;;15.73;3.63;;;;;;;;;;4992162;28;20037;-80
2021/09/04 03:39:47;;;;;;;18.23;4.63;;;;;;;;;;4992635;28;20034;-80
2021/09/04 03:42:13;;;;;;;18.42;4.20;;;;;;;;;;4998187;28;20033;-77
2021/09/04 03:44:40;;;;;;;14.85;5.05;;;;;;;;;;5000333;28;20029;-78
2021/09/04 03:47:06;;;;;;;13.23;3.92;;;;;;;;;;4993037;28;20045;-80
2021/09/04 03:49:32;;;;;;;14.18;3.83;;;;;;;;;;4997286;28;20079;-80
2021/09/04 03:51:58;;;;;;;15.40;3.67;;;;;;;;;;4993255;28;20125;-80
2021/09/04 03:54:24;;;;;;;13.15;3.60;;;;;;;;;;4997935;28;20033;-80
2021/09/04 03:56:53;;;;;;;11.75;3.70;;;;;;;;;;4994280;28;20037;-80
2021/09/04 03:59:20;;;;;;;12.75;3.35;;;;;;;;;;4996070;28;20044;-80
2021/09/04 04:01:46;;;;;;;12.55;3.03;;;;;;;;;;4989397;28;20511;-80
2021/09/04 04:04:12;;;;;;;10.95;3.00;;;;;;;;;;4995607;28;20055;-80
2021/09/04 04:06:38;;;;;;;14.35;3.65;;;;;;;;;;4999589;28;20029;-80
2021/09/04 04:09:04;;;;;;;10.18;3.20;;;;;;;;;;4989656;28;20057;-80
2021/09/04 04:11:31;;;;;;;11.23;3.22;;;;;;;;;;4994989;28;20026;-80
2021/09/04 04:13:57;;;;;;;11.65;3.33;;;;;;;;;;4989053;28;20095;-78
2021/09/04 04:16:23;;;;;;;15.20;3.85;;;;;;;;;;4995491;28;20425;-80
2021/09/04 04:18:49;;;;;;;13.48;3.63;;;;;;;;;;4991670;28;20064;-79
2021/09/04 04:21:15;;;;;;;14.93;3.47;;;;;;;;;;4992059;28;20433;-80
2021/09/04 04:23:42;;;;;;;14.02;3.80;;;;;;;;;;4995388;28;20033;-80
2021/09/04 04:26:08;;;;;;;16.00;3.90;;;;;;;;;;4995689;28;20029;-81
2021/09/04 04:28:34;;;;;;;14.63;3.53;;;;;;;;;;4999560;28;20033;-80
2021/09/04 04:31:03;;;;;;;16.40;4.18;;;;;;;;;;4995665;28;23597;-80
2021/09/04 04:33:29;;;;;;;19.40;3.90;;;;;;;;;;5001383;28;20032;-80
2021/09/04 04:35:56;;;;;;;13.95;3.58;;;;;;;;;;4992088;28;20022;-80
2021/09/04 04:38:22;;;;;;;14.35;3.28;;;;;;;;;;5000112;28;20025;-80
2021/09/04 04:40:48;;;;;;;13.90;3.70;;;;;;;;;;4997660;28;20026;-80
2021/09/04 04:43:14;;;;;;;16.27;4.03;;;;;;;;;;4999357;28;20064;-79
2021/09/04 04:45:40;;;;;;;12.50;4.00;;;;;;;;;;5000286;28;20025;-81
2021/09/04 04:48:06;;;;;;;11.23;3.80;;;;;;;;;;4995374;28;21031;-80
2021/09/04 04:50:33;;;;;;;11.68;3.30;;;;;;;;;;4999727;28;20104;-79
2021/09/04 04:52:59;;;;;;;14.35;4.28;;;;;;;;;;4992368;28;20029;-78
2021/09/04 04:55:25;;;;;;;11.68;3.60;;;;;;;;;;4998146;28;20025;-78
2021/09/04 04:57:51;;;;;;;13.43;3.58;;;;;;;;;;5010447;28;20029;-79
2021/09/04 05:00:18;;;;;;;15.75;3.97;;;;;;;;;;4998419;28;20040;-78
2021/09/04 05:02:44;;;;;;;16.10;4.43;;;;;;;;;;4994070;28;20036;-78
2021/09/04 05:05:10;;;;;;;20.33;4.55;;;;;;;;;;4998286;28;20155;-78
2021/09/04 05:07:37;;;;;;;12.18;3.63;;;;;;;;;;5000922;28;20021;-77
2021/09/04 05:10:04;;;;;;;13.45;4.35;;;;;;;;;;4992254;28;22714;-79
2021/09/04 05:12:30;;;;;;;17.38;4.25;;;;;;;;;;5000424;28;21147;-80
2021/09/04 05:14:56;;;;;;;16.15;4.35;;;;;;;;;;4995235;28;20021;-80
2021/09/04 05:17:22;;;;;;;16.67;4.25;;;;;;;;;;4998565;28;20025;-79
2021/09/04 05:19:48;;;;;;;15.27;3.38;;;;;;;;;;4996056;28;20033;-80
2021/09/04 05:22:14;;;;;;;16.33;3.60;;;;;;;;;;4996856;28;20029;-80
2021/09/04 05:24:41;;;;;;;13.30;3.70;;;;;;;;;;4999446;28;20041;-79
2021/09/04 05:27:07;;;;;;;15.90;4.50;;;;;;;;;;4993728;28;20612;-79
2021/09/04 05:29:33;;;;;;;16.98;4.25;;;;;;;;;;5013918;28;20044;-79
2021/09/04 05:31:59;;;;;;;13.52;3.83;;;;;;;;;;4993599;28;20036;-79
2021/09/04 05:34:25;;;;;;;15.07;4.05;;;;;;;;;;4996121;28;20057;-79
2021/09/04 05:36:51;;;;;;;13.02;3.92;;;;;;;;;;4997401;28;20029;-80
2021/09/04 05:39:17;;;;;;;12.60;3.47;;;;;;;;;;5000780;28;20028;-79
2021/09/04 05:41:44;;;;;;;12.43;3.72;;;;;;;;;;4993606;28;20033;-79
2021/09/04 05:44:10;;;;;;;16.13;3.92;;;;;;;;;;5013997;28;20384;-80
2021/09/04 05:46:36;;;;;;;16.15;4.68;;;;;;;;;;4995958;28;20133;-79
2021/09/04 05:49:02;;;;;;;12.52;3.58;;;;;;;;;;4994174;28;20036;-77
2021/09/04 05:51:28;;;;;;;12.15;3.47;;;;;;;;;;5001137;28;20142;-80
2021/09/04 05:53:54;;;;;;;15.07;4.10;;;;;;;;;;4995895;28;20029;-80
2021/09/04 05:56:21;;;;;;;16.77;4.50;;;;;;;;;;4999092;28;20047;-80
2021/09/04 05:58:47;;;;;;;16.52;4.20;;;;;;;;;;4992825;28;20116;-80
2021/09/04 06:01:13;;;;;;;13.95;4.00;;;;;;;;;;5001429;28;20041;-81
2021/09/04 06:03:39;;;;;;;17.15;4.28;;;;;;;;;;4997343;28;20029;-79
2021/09/04 06:06:06;;;;;;;23.23;4.20;;;;;;;;;;4998697;28;20025;-79
2021/09/04 06:08:33;;;;;;;14.73;4.05;;;;;;;;;;4998079;28;21286;-78
2021/09/04 06:10:59;;;;;;;11.20;3.30;;;;;;;;;;4997423;28;20032;-77
2021/09/04 06:13:25;;;;;;;17.15;4.18;;;;;;;;;;5012276;28;20025;-78
2021/09/04 06:15:51;;;;;;;15.70;4.22;;;;;;;;;;4998435;28;20056;-79
2021/09/04 06:18:18;;;;;;;13.52;4.05;;;;;;;;;;5000176;28;20056;-78
2021/09/04 06:20:44;;;;;;;17.38;3.97;;;;;;;;;;4992876;28;20022;-80
2021/09/04 06:23:10;;;;;;;18.02;3.95;;;;;;;;;;5001234;28;20566;-80
2021/09/04 06:25:38;;;;;;;14.95;3.45;;;;;;;;;;4996215;28;20045;-79
2021/09/04 06:28:04;;;;;;;16.20;4.00;;;;;;;;;;4993583;28;20044;-78
2021/09/04 06:30:31;;;;;;;17.25;4.10;;;;;;;;;;4995193;28;20164;-79
2021/09/04 06:32:57;;;;;;;13.95;4.40;;;;;;;;;;4995719;28;20121;-79
2021/09/04 06:35:23;;;;;;;13.45;4.13;;;;;;;;;;4997307;28;20941;-80
2021/09/04 06:37:49;;;;;;;13.60;3.67;;;;;;;;;;4993372;28;20542;-81
2021/09/04 06:40:15;;;;;;;12.38;3.58;;;;;;;;;;4999072;28;20038;-77
2021/09/04 06:42:42;;;;;;;13.00;3.60;;;;;;;;;;4996229;28;20212;-80
2021/09/04 06:45:08;;;;;;;16.02;4.20;;;;;;;;;;4998190;28;20049;-80
2021/09/04 06:47:34;;;;;;;19.20;4.00;;;;;;;;;;4993888;28;20074;-80
2021/09/04 06:50:00;;;;;;;13.98;3.60;;;;;;;;;;4997652;28;20033;-79
2021/09/04 06:52:26;;;;;;;16.38;3.78;;;;;;;;;;4995047;28;20032;-79
2021/09/04 06:54:52;;;;;;;14.27;3.53;;;;;;;;;;4994616;28;20037;-80
2021/09/04 06:57:18;;;;;;;11.98;3.72;;;;;;;;;;4995767;28;20444;-80
2021/09/04 06:59:45;;;;;;;12.80;3.78;;;;;;;;;;4995571;28;20026;-80
2021/09/04 07:02:11;;;;;;;13.88;4.18;;;;;;;;;;4996191;28;20060;-79
2021/09/04 07:04:37;;;;;;;17.55;3.70;;;;;;;;;;4996226;28;20026;-79
2021/09/04 07:07:04;;;;;;;16.52;4.43;;;;;;;;;;5010605;28;20037;-78
2021/09/04 07:09:31;;;;;;;16.75;3.97;;;;;;;;;;4992594;28;20109;-81
2021/09/04 07:11:57;;;;;;;15.93;4.22;;;;;;;;;;5006665;28;20033;-79
2021/09/04 07:14:23;;;;;;;13.07;4.00;;;;;;;;;;5004120;28;20025;-79
2021/09/04 07:16:49;;;;;;;21.05;4.07;;;;;;;;;;5001676;28;20767;-79
2021/09/04 07:19:16;;;;;;;12.93;2.88;;;;;;;;;;4999916;28;20124;-79
2021/09/04 07:21:42;;;;;;;15.93;3.70;;;;;;;;;;4993840;28;20037;-79
2021/09/04 07:24:08;;;;;;;18.15;4.57;;;;;;;;;;4997178;28;20118;-79
2021/09/04 07:26:34;;;;;;;13.55;3.38;;;;;;;;;;5000379;28;20048;-79
2021/09/04 07:29:01;;;;;;;14.23;2.97;;;;;;;;;;4993822;28;20149;-79
2021/09/04 07:31:28;;;;;;;13.57;3.42;;;;;;;;;;4994276;28;20044;-80
2021/09/04 07:33:55;;;;;;;12.88;3.28;;;;;;;;;;4994343;28;20029;-79
2021/09/04 07:36:21;;;;;;;15.80;3.38;;;;;;;;;;5011423;28;20144;-80
2021/09/04 07:38:47;;;;;;;14.23;3.33;;;;;;;;;;4994291;28;20140;-79
2021/09/04 07:41:13;;;;;;;20.25;4.30;;;;;;;;;;4995010;28;20048;-80
2021/09/04 07:43:39;;;;;;;12.60;3.05;;;;;;;;;;4997551;28;20049;-79
2021/09/04 07:46:05;;;;;;;9.70;3.00;;;;;;;;;;4995139;28;20556;-78
2021/09/04 07:48:32;;;;;;;16.02;3.20;;;;;;;;;;4999448;28;20026;-79
2021/09/04 07:50:58;;;;;;;14.35;3.30;;;;;;;;;;4996384;28;20021;-80
2021/09/04 07:53:24;;;;;;;13.95;3.65;;;;;;;;;;4999419;28;20599;-81
2021/09/04 07:55:50;;;;;;;10.90;2.70;;;;;;;;;;4991570;28;20498;-80
2021/09/04 07:58:16;;;;;;;13.20;3.30;;;;;;;;;;5007478;28;20033;-79
2021/09/04 08:00:43;;;;;;;14.48;3.58;;;;;;;;;;5004210;28;20077;-80
2021/09/04 08:03:09;;;;;;;16.58;3.92;;;;;;;;;;5006818;28;20025;-79
2021/09/04 08:05:35;;;;;;;13.50;3.33;;;;;;;;;;5020210;28;20492;-79
2021/09/04 08:08:01;;;;;;;13.00;2.83;;;;;;;;;;5000185;28;20436;-79
2021/09/04 08:10:27;;;;;;;13.63;2.85;;;;;;;;;;5013830;28;20026;-78
2021/09/04 08:12:54;;;;;;;12.98;2.97;;;;;;;;;;4994953;28;20036;-79
2021/09/04 08:15:20;;;;;;;12.40;2.95;;;;;;;;;;5002175;28;20535;-80
2021/09/04 08:17:46;;;;;;;14.00;3.78;;;;;;;;;;4995230;28;20032;-79
2021/09/04 08:20:12;;;;;;;12.50;2.75;;;;;;;;;;4998996;28;20514;-80
2021/09/04 08:22:39;;;;;;;14.98;3.65;;;;;;;;;;5000185;28;20026;-79
2021/09/04 08:25:07;;;;;;;15.57;3.78;;;;;;;;;;4998659;28;20026;-79
2021/09/04 08:27:33;;;;;;;12.93;3.13;;;;;;;;;;5001435;28;20053;-79
2021/09/04 08:29:59;;;;;;;10.07;2.90;;;;;;;;;;4996187;28;20175;-79
2021/09/04 08:32:25;;;;;;;10.77;2.78;;;;;;;;;;5001926;28;20051;-79
2021/09/04 08:34:52;;;;;;;13.45;2.80;;;;;;;;;;4995941;28;20030;-80
2021/09/04 08:37:18;;;;;;;10.38;2.70;;;;;;;;;;5013213;28;20026;-80
2021/09/04 08:39:44;;;;;;;12.15;3.00;;;;;;;;;;4994658;28;20040;-79
2021/09/04 08:42:11;;;;;;;16.42;3.30;;;;;;;;;;4994845;28;20037;-78
2021/09/04 08:44:37;;;;;;;13.65;2.85;;;;;;;;;;4997372;28;20018;-78
2021/09/04 08:47:04;;;;;;;13.77;3.13;;;;;;;;;;5011119;28;20493;-78
2021/09/04 08:49:31;;;;;;;11.75;2.80;;;;;;;;;;5004757;28;20026;-80
2021/09/04 08:51:57;;;;;;;15.85;3.08;;;;;;;;;;4997878;28;20125;-82
2021/09/04 08:54:23;;;;;;;15.45;3.20;;;;;;;;;;5000785;28;20020;-78
2021/09/04 08:56:49;;;;;;;12.02;2.90;;;;;;;;;;4994538;28;20018;-79
2021/09/04 08:59:15;;;;;;;14.65;3.67;;;;;;;;;;4997229;28;20430;-80
2021/09/04 09:01:46;;;;;;;10.40;2.65;;;;;;;;;;4999288;28;20506;-77
2021/09/04 09:04:16;;;;;;;10.68;2.80;;;;;;;;;;4998962;28;20030;-80
2021/09/04 09:06:43;;;;;;;10.82;2.67;;;;;;;;;;4993434;28;20045;-79
2021/09/04 09:09:20;;;;;;;12.63;2.75;;;;;;;;;;5000242;28;20128;-79
2021/09/04 09:11:50;;;;;;;12.73;2.97;;;;;;;;;;5000178;28;20038;-79
2021/09/04 09:14:17;;;;;;;12.88;2.88;;;;;;;;;;4995186;28;20021;-79
2021/09/04 09:16:50;;;;;;;10.98;2.72;;;;;;;;;;4997147;28;20594;-79
2021/09/04 09:19:16;;;;;;;12.45;2.50;;;;;;;;;;4998072;28;20028;-79
2021/09/04 09:21:42;;;;;;;13.25;2.97;;;;;;;;;;4995435;28;20539;-78
2021/09/04 09:24:14;;;;;;;12.18;2.38;;;;;;;;;;5011672;28;20068;-79
2021/09/04 09:26:47;;;;;;;13.52;2.55;;;;;;;;;;4996483;28;20089;-79
2021/09/04 09:29:15;;;;;;;12.20;2.45;;;;;;;;;;5002498;28;20127;-79
2021/09/04 09:31:41;;;;;;;13.13;2.55;;;;;;;;;;4991949;28;20727;-78
2021/09/04 09:34:14;;;;;;;13.38;3.17;;;;;;;;;;4991228;28;20017;-79
2021/09/04 09:36:51;;;;;;;15.57;2.83;;;;;;;;;;4992982;28;20029;-79
2021/09/04 09:39:17;;;;;;;15.73;3.08;;;;;;;;;;4992088;28;20044;-80
2021/09/04 09:41:50;;;;;;;11.50;2.58;;;;;;;;;;4991822;28;20029;-79
2021/09/04 09:44:17;;;;;;;11.40;2.63;;;;;;;;;;4995150;28;20040;-79
2021/09/04 09:46:56;;;;;;;11.23;2.83;;;;;;;;;;4992864;28;20033;-80
2021/09/04 09:49:30;;;;;;;13.25;2.88;;;;;;;;;;4991966;28;20038;-79
2021/09/04 09:52:00;;;;;;;14.27;3.00;;;;;;;;;;4990363;28;20036;-79
2021/09/04 09:54:27;;;;;;;12.23;2.80;;;;;;;;;;4996212;28;20516;-80
2021/09/04 09:56:57;;;;;;;13.38;2.47;;;;;;;;;;4991457;28;20033;-79
2021/09/04 09:59:28;;;;;;;13.82;3.03;;;;;;;;;;5006270;28;20613;-78
2021/09/04 10:01:58;;;;;;;11.80;2.55;;;;;;;;;;4987992;28;20132;-79
2021/09/04 10:04:29;;;;;;;14.75;3.15;;;;;;;;;;4997104;28;20026;-78
2021/09/04 10:06:56;;;;;;;11.25;2.70;;;;;;;;;;5005853;28;20734;-77
2021/09/04 10:09:23;;;;;;;9.70;2.70;;;;;;;;;;4990968;28;20102;-81
2021/09/04 10:11:50;;;;;;;12.68;3.10;;;;;;;;;;4994317;28;20025;-79
2021/09/04 10:14:16;;;;;;;12.57;2.60;;;;;;;;;;4994629;28;20830;-80
2021/09/04 10:16:44;;;;;;;13.98;2.83;;;;;;;;;;5004700;28;20072;-79
2021/09/04 10:19:11;;;;;;;11.88;2.60;;;;;;;;;;4997869;28;20515;-80
2021/09/04 10:21:38;;;;;;;14.00;3.42;;;;;;;;;;4992279;28;20034;-82
2021/09/04 10:24:05;;;;;;;11.77;2.90;;;;;;;;;;4996624;28;21048;-80
2021/09/04 10:26:32;;;;;;;11.35;3.33;;;;;;;;;;4998975;28;20030;-79
2021/09/04 10:29:03;;;;;;;13.68;2.65;;;;;;;;;;4996332;28;20037;-80
2021/09/04 10:31:48;;;;;;;13.32;2.35;;;;;;;;;;5001485;28;20022;-83
2021/09/04 10:34:15;;;;;;;10.45;2.58;;;;;;;;;;4996856;28;20071;-81
2021/09/04 10:36:57;;;;;;;13.48;3.13;;;;;;;;;;5003019;28;20810;-82
2021/09/04 10:39:24;;;;;;;11.98;2.90;;;;;;;;;;5000436;28;20029;-82
2021/09/04 10:41:50;;;;;;;14.30;2.70;;;;;;;;;;5011384;28;20036;-81
2021/09/04 10:44:22;;;;;;;12.20;2.38;;;;;;;;;;4996253;28;20476;-80
2021/09/04 10:46:49;;;;;;;12.25;2.60;;;;;;;;;;4991054;28;20470;-81
2021/09/04 10:49:35;;;;;;;10.23;2.78;;;;;;;;;;5004554;28;20029;-84
2021/09/04 10:52:01;;;;;;;11.10;2.50;;;;;;;;;;5007791;28;20029;-82
2021/09/04 10:54:46;;;;;;;13.63;2.70;;;;;;;;;;4999775;28;20079;-81
2021/09/04 10:57:13;;;;;;;13.27;2.83;;;;;;;;;;5000042;28;20022;-81
2021/09/04 10:59:59;;;;;;;13.80;2.67;;;;;;;;;;4996414;28;20029;-82
2021/09/04 11:02:38;;;;;;;10.18;2.50;;;;;;;;;;4997863;28;20025;-80
2021/09/04 11:05:23;;;;;;;14.20;2.80;;;;;;;;;;4992335;28;20039;-82
2021/09/04 11:08:10;;;;;;;11.18;2.47;;;;;;;;;;4991789;28;20025;-81
2021/09/04 11:10:38;;;;;;;12.98;2.80;;;;;;;;;;4997471;28;20044;-81
2021/09/04 11:13:04;;;;;;;12.60;2.85;;;;;;;;;;4994177;28;20048;-80
2021/09/04 11:15:31;;;;;;;12.52;2.75;;;;;;;;;;4999202;28;20481;-81
2021/09/04 11:17:57;;;;;;;11.82;2.78;;;;;;;;;;5005900;28;20038;-83
2021/09/04 11:20:24;;;;;;;12.20;2.78;;;;;;;;;;4996682;28;20940;-80
2021/09/04 11:22:50;;;;;;;14.07;3.45;;;;;;;;;;4994605;28;20030;-83
2021/09/04 11:25:22;;;;;;;19.80;3.92;;;;;;;;;;4996801;28;20025;-81
2021/09/04 11:27:51;;;;;;;12.05;3.47;;;;;;;;;;4993498;28;20033;-83
2021/09/04 11:30:20;;;;;;;13.40;3.63;;;;;;;;;;5011563;28;20038;-81
2021/09/04 11:32:47;;;;;;;13.43;3.25;;;;;;;;;;4991875;28;20029;-83
2021/09/04 11:35:13;;;;;;;15.13;3.22;;;;;;;;;;5003913;28;20040;-81
2021/09/04 11:37:43;;;;;;;13.27;3.38;;;;;;;;;;5001675;28;20096;-81
2021/09/04 11:40:11;;;;;;;10.45;2.70;;;;;;;;;;4999139;28;20021;-81
2021/09/04 11:42:39;;;;;;;12.63;3.05;;;;;;;;;;5001703;28;20938;-80
2021/09/04 11:45:09;;;;;;;13.48;3.08;;;;;;;;;;4996801;28;20072;-81
2021/09/04 11:47:37;;;;;;;12.63;3.72;;;;;;;;;;5000319;28;20040;-82
2021/09/04 11:50:05;;;;;;;14.27;4.05;;;;;;;;;;4997813;28;20037;-81
2021/09/04 11:52:34;;;;;;;12.50;3.78;;;;;;;;;;4999616;28;20041;-80
2021/09/04 11:55:03;;;;;;;15.75;3.83;;;;;;;;;;4997844;28;20043;-80
2021/09/04 11:57:31;;;;;;;14.85;3.97;;;;;;;;;;5003221;28;20097;-83
2021/09/04 11:59:57;;;;;;;11.82;3.45;;;;;;;;;;5010468;28;20029;-81
2021/09/04 12:02:24;;;;;;;17.95;4.40;;;;;;;;;;5002207;28;20029;-82
2021/09/04 12:04:50;;;;;;;13.40;3.95;;;;;;;;;;4994670;28;20033;-82
2021/09/04 12:07:16;;;;;;;12.32;3.67;;;;;;;;;;5004227;28;20739;-82
2021/09/04 12:09:43;;;;;;;11.18;3.28;;;;;;;;;;4996728;28;20049;-81
2021/09/04 12:12:09;;;;;;;16.05;4.00;;;;;;;;;;5004013;28;20030;-82
2021/09/04 12:14:35;;;;;;;19.35;6.50;;;;;;;;;;5000584;28;20040;-82
2021/09/04 12:17:02;;;;;;;13.65;4.15;;;;;;;;;;4996852;28;20389;-81
2021/09/04 12:19:37;;;;;;;14.40;4.40;;;;;;;;;;5002694;28;20033;-81
2021/09/04 12:22:03;;;;;;;14.68;4.88;;;;;;;;;;5010768;28;20996;-81
2021/09/04 12:24:33;;;;;;;10.77;3.38;;;;;;;;;;5001686;28;20030;-81
2021/09/04 12:26:59;;;;;;;12.50;3.60;;;;;;;;;;4992444;28;20165;-82
2021/09/04 12:29:29;;;;;;;13.05;3.63;;;;;;;;;;5001684;28;20025;-81
2021/09/04 12:32:12;;;;;;;9.77;2.78;;;;;;;;;;5011473;28;20021;-81
2021/09/04 12:34:40;;;;;;;14.07;5.35;;;;;;;;;;5001075;28;20029;-81
2021/09/04 12:37:28;;;;;;;26.38;16.90;;;;;;;;;;4995387;28;20131;-81
2021/09/04 12:40:05;;;;;;;19.00;9.98;;;;;;;;;;4996799;28;20033;-81
2021/09/04 12:42:31;;;;;;;19.42;11.20;;;;;;;;;;4996317;28;20114;-82
2021/09/04 12:45:04;;;;;;;37.20;24.60;;;;;;;;;;5012551;28;20128;-81
2021/09/04 12:47:40;;;;;;;25.95;14.52;;;;;;;;;;4998148;28;20080;-82
2021/09/04 12:50:07;;;;;;;50.67;33.88;;;;;;;;;;4999145;28;20036;-81
2021/09/04 12:52:33;;;;;;;14.68;5.28;;;;;;;;;;5003001;28;20034;-83
2021/09/04 12:55:00;;;;;;;22.02;12.55;;;;;;;;;;4996344;28;21265;-82
2021/09/04 12:57:27;;;;;;;61.47;47.83;;;;;;;;;;5002047;28;20029;-83
2021/09/04 12:59:53;;;;;;;23.95;14.70;;;;;;;;;;4997794;28;20531;-81
2021/09/04 13:02:30;;;;;;;15.65;7.60;;;;;;;;;;5004229;28;20636;-81
2021/09/04 13:04:57;;;;;;;17.13;5.15;;;;;;;;;;4996596;28;20036;-82
2021/09/04 13:07:24;;;;;;;14.45;4.78;;;;;;;;;;5001971;28;20127;-81
2021/09/04 13:09:50;;;;;;;13.95;4.00;;;;;;;;;;5003299;28;20038;-82
2021/09/04 13:12:17;;;;;;;10.85;4.65;;;;;;;;;;4998869;28;20448;-81
2021/09/04 13:14:43;;;;;;;12.13;3.42;;;;;;;;;;5002041;28;20025;-82
2021/09/04 13:17:10;;;;;;;12.88;3.50;;;;;;;;;;5005706;28;20028;-81
2021/09/04 13:19:36;;;;;;;9.82;2.92;;;;;;;;;;5004442;28;20041;-81
2021/09/04 13:22:02;;;;;;;11.15;2.97;;;;;;;;;;5005779;28;20036;-82
2021/09/04 13:24:28;;;;;;;14.95;3.75;;;;;;;;;;5006016;28;20036;-81
2021/09/04 13:26:54;;;;;;;12.18;3.17;;;;;;;;;;4998209;28;20470;-81
2021/09/04 13:29:21;;;;;;;9.73;2.65;;;;;;;;;;5006107;28;20429;-80
2021/09/04 13:31:48;;;;;;;11.23;2.60;;;;;;;;;;4998233;28;20056;-81
2021/09/04 13:34:15;;;;;;;13.50;3.20;;;;;;;;;;5002653;28;20120;-82
2021/09/04 13:36:42;;;;;;;10.35;3.00;;;;;;;;;;4999233;28;20029;-81
2021/09/04 13:39:09;;;;;;;8.95;2.78;;;;;;;;;;4999754;28;20065;-81
2021/09/04 13:41:35;;;;;;;10.52;2.33;;;;;;;;;;5000966;28;20032;-82
2021/09/04 13:44:01;;;;;;;12.73;3.40;;;;;;;;;;4991843;28;20140;-82
2021/09/04 13:46:28;;;;;;;11.93;3.00;;;;;;;;;;5004940;28;20584;-82
2021/09/04 13:48:54;;;;;;;9.45;2.60;;;;;;;;;;4993837;28;20061;-83
2021/09/04 13:51:20;;;;;;;12.60;2.90;;;;;;;;;;5001383;28;20022;-79
2021/09/04 13:53:46;;;;;;;10.65;2.80;;;;;;;;;;4995401;28;20822;-80
2021/09/04 13:56:13;;;;;;;12.25;2.72;;;;;;;;;;5000639;28;20026;-81
2021/09/04 13:58:39;;;;;;;13.13;3.42;;;;;;;;;;4999001;28;20090;-80
2021/09/04 14:01:05;;;;;;;9.27;2.72;;;;;;;;;;4997358;28;20045;-79
2021/09/04 14:03:33;;;;;;;12.68;3.50;;;;;;;;;;4999459;28;20049;-80
2021/09/04 14:05:59;;;;;;;11.18;3.00;;;;;;;;;;4995775;28;20037;-80
2021/09/04 14:08:25;;;;;;;11.25;3.35;;;;;;;;;;4997684;28;20477;-80
2021/09/04 14:10:52;;;;;;;11.90;2.90;;;;;;;;;;4994336;28;20500;-82
2021/09/04 14:13:18;;;;;;;13.40;3.05;;;;;;;;;;5000077;28;20038;-81
2021/09/04 14:15:45;;;;;;;11.38;3.20;;;;;;;;;;4996471;28;20037;-80
2021/09/04 14:18:11;;;;;;;11.38;2.70;;;;;;;;;;4997555;28;20018;-82
2021/09/04 14:20:37;;;;;;;11.82;3.13;;;;;;;;;;4998748;28;20037;-81
2021/09/04 14:23:04;;;;;;;18.20;5.93;;;;;;;;;;4996449;28;20554;-80
2021/09/04 14:25:31;;;;;;;10.55;3.05;;;;;;;;;;5003515;28;20030;-83
2021/09/04 14:27:57;;;;;;;14.48;3.30;;;;;;;;;;5008131;28;20487;-81
2021/09/04 14:30:23;;;;;;;9.82;2.75;;;;;;;;;;5009128;28;20029;-82